createdAt,value
2022-11-08T00:08:53.664Z,100462.81
2022-11-08T00:18:58.336Z,100454.78
2022-11-08T00:29:01.365Z,100454.94
2022-11-08T00:39:05.601Z,100445.47
2022-11-08T00:49:08.801Z,100445.47
2022-11-08T00:59:14.140Z,100428.44
2022-11-08T01:09:17.604Z,100430.50
2022-11-08T01:19:21.808Z,100415.59
2022-11-08T01:29:24.696Z,100413.78
2022-11-08T01:39:32.976Z,100403.53
2022-11-08T01:49:41.188Z,100402.22
2022-11-08T01:59:48.771Z,100410.19
2022-11-08T02:09:51.807Z,100383.44
2022-11-08T02:19:56.081Z,100383.63
2022-11-08T02:30:00.403Z,100377.03
2022-11-08T02:40:03.489Z,100364.16
2022-11-08T02:50:08.729Z,100349.50
2022-11-08T03:00:13.227Z,100335.56
2022-11-08T03:10:18.640Z,100310.06
2022-11-08T03:20:22.495Z,100291.69
2022-11-08T03:30:26.800Z,100274.03
2022-11-08T03:40:29.793Z,100263.75
2022-11-08T03:50:34.178Z,100265.94
2022-11-08T04:00:37.437Z,100266.66
2022-11-08T04:10:41.725Z,100240.91
2022-11-08T04:21:04.157Z,100223.91
2022-11-08T04:31:09.986Z,100228.63
2022-11-08T04:41:14.683Z,100224.44
2022-11-08T04:51:21.057Z,100199.84
2022-11-08T05:01:26.038Z,100168.38
2022-11-08T05:11:31.941Z,100171.97
2022-11-08T05:21:48.872Z,100165.13
2022-11-08T05:31:53.429Z,100131.31
2022-11-08T05:41:56.389Z,100142.47
2022-11-08T05:52:00.776Z,100124.63
2022-11-08T06:02:03.970Z,100089.19
2022-11-08T06:12:09.302Z,100096.63
2022-11-08T06:22:12.389Z,100099.38
2022-11-08T06:32:16.991Z,100107.91
2022-11-08T06:42:20.299Z,100118.50
2022-11-08T06:52:24.485Z,100131.47
2022-11-08T07:02:27.281Z,100130.81
2022-11-08T07:12:32.443Z,100129.13
2022-11-08T07:22:36.017Z,100129.28
2022-11-08T07:32:40.159Z,100139.06
2022-11-08T07:43:10.208Z,100146.63
2022-11-08T07:53:08.385Z,100147.13
2022-11-08T08:03:13.412Z,100122.31
2022-11-08T08:13:18.344Z,100134.63
2022-11-08T08:23:21.519Z,100122.78
2022-11-08T08:33:28.745Z,100142.13
2022-11-08T08:43:33.373Z,100141.75
2022-11-08T08:53:37.625Z,100145.94
2022-11-08T09:03:40.415Z,100146.31
2022-11-08T09:24:05.562Z,100121.44
2022-11-08T09:34:09.861Z,100130.31
2022-11-08T09:44:22.743Z,100157.72
2022-11-08T09:54:32.519Z,100151.97
2022-11-08T10:04:38.081Z,100129.44
2022-11-08T10:14:54.643Z,100125.47
2022-11-08T10:25:02.555Z,100121.22
2022-11-08T10:35:18.691Z,100105.50
2022-11-08T10:45:21.489Z,100080.38
2022-11-08T10:55:28.355Z,100082.03
2022-11-08T11:05:34.896Z,100063.75
2022-11-08T11:15:41.203Z,100049.25
2022-11-08T11:25:52.213Z,100031.44
2022-11-08T11:35:59.517Z,100025.16
2022-11-08T11:46:10.826Z,100023.06
2022-11-08T11:56:43.670Z,100005.31
2022-11-08T12:06:53.305Z,100001.88
2022-11-08T12:17:11.317Z,99982.44
2022-11-08T12:27:28.126Z,99980.25
2022-11-08T12:37:51.331Z,99958.34
2022-11-08T12:47:58.598Z,99953.91
2022-11-08T12:58:06.302Z,99923.97
2022-11-08T13:08:14.169Z,99979.88
2022-11-08T13:18:34.216Z,100003.44
2022-11-08T13:28:45.897Z,99972.16
2022-11-08T13:39:02.077Z,99959.06
2022-11-08T13:49:14.497Z,99980.22
2022-11-08T13:59:59.656Z,99976.50
2022-11-08T14:10:13.063Z,99975.56
2022-11-08T14:20:20.371Z,99981.97
2022-11-08T14:30:24.895Z,99979.91
2022-11-08T14:40:30.254Z,99967.78
2022-11-08T14:50:35.812Z,99973.16
2022-11-08T15:00:39.035Z,99966.72
2022-11-08T15:10:55.088Z,99992.88
2022-11-08T15:21:01.380Z,99968.84
2022-11-08T15:31:28.124Z,99964.03
2022-11-08T15:41:33.937Z,99957.06
2022-11-08T15:51:38.732Z,99957.91
2022-11-08T16:01:48.723Z,99960.78
2022-11-08T16:11:53.089Z,99973.03
2022-11-08T16:21:56.232Z,99958.09
2022-11-08T16:32:00.639Z,99963.47
2022-11-08T16:42:04.296Z,99947.31
2022-11-08T16:52:10.178Z,99931.94
2022-11-08T17:02:21.389Z,99928.31
2022-11-08T17:12:25.733Z,99925.72
2022-11-08T17:22:28.835Z,99953.28
2022-11-08T17:32:35.268Z,99959.41
2022-11-08T17:42:39.640Z,99963.34
2022-11-08T17:52:43.757Z,99965.75
2022-11-08T18:02:46.471Z,99964.91
2022-11-08T18:12:50.583Z,99967.06
2022-11-08T18:22:53.327Z,99953.50
2022-11-08T18:32:57.546Z,99948.16
2022-11-08T18:43:00.676Z,99954.31
2022-11-08T18:53:07.131Z,99958.03
2022-11-08T19:03:10.233Z,99949.59
2022-11-08T19:13:15.108Z,99951.81
2022-11-08T19:23:18.574Z,99943.75
2022-11-08T19:33:25.912Z,99954.16
2022-11-08T19:43:28.967Z,99957.56
2022-11-08T19:53:33.949Z,99950.06
2022-11-08T20:03:38.291Z,99952.84
2022-11-08T20:13:43.975Z,99945.81
2022-11-08T20:23:47.730Z,99964.31
2022-11-08T20:33:53.824Z,99958.19
2022-11-08T20:43:57.193Z,99963.75
2022-11-08T20:54:02.366Z,99975.22
2022-11-08T21:04:05.650Z,99986.91
2022-11-08T21:14:09.876Z,99978.56
2022-11-08T21:24:13.372Z,99980.94
2022-11-08T21:34:17.808Z,99976.63
2022-11-08T21:44:21.088Z,99975.34
2022-11-08T21:54:25.517Z,99979.06
2022-11-08T22:04:28.714Z,99987.59
2022-11-08T22:14:32.851Z,99986.28
2022-11-08T22:24:35.788Z,99980.16
2022-11-08T22:34:40.526Z,99963.91
2022-11-08T22:44:43.432Z,99950.13
2022-11-08T22:54:47.868Z,99968.06
2022-11-08T23:04:50.987Z,99977.13
2022-11-08T23:15:13.142Z,99975.53
2022-11-08T23:25:16.504Z,99990.59
2022-11-08T23:35:22.084Z,99989.34
2022-11-08T23:45:25.336Z,99941.13
2022-11-08T23:55:29.745Z,99939.84
